Terminal Aerodrome Forecast
Issued by NWS

Home | Current Version | Previous Version | Graphics & Text | Print | Product List | Glossary On
Versions: 1 2 3 4 5 6 7 8 9 10 11 12 13 14 15
000
FTUS43 KMPX 040520
TAFRNH
TAF
KRNH 040520Z 0406/0506 VRB03KT P6SM BKN250
     FM040900 VRB03KT 4SM BR SCT040 BKN250
     FM041300 VRB04KT 6SM HZ SCT040 BKN250
     FM041500 18006KT 6SM HZ SCT050 BKN250=

USA.gov is the U.S. government's official web portal to all federal, state and local government web resources and services.